NSZ3851 EGKK-EKBI
Flight info
| Callsign | NSZ3851 |
|---|---|
| Flight time | 1h 13m |
| Altitude | 37000 |
| Route | FRANE M604 GIVPO DCT ROKAN DCT RENEQ DCT OMIMA DCT LOKSA |
| Aircraft | A320/M-SDE3FGHIRWY/LB1 |
Departure
| Time | 2026-05-07 07:26 |
|---|---|
| Airport | London Gatwick Airport (EGKK) |
Arrival
| Time | 2026-05-07 08:39 |
|---|---|
| Airport | Billund Airport (EKBI) |
| Time | Latitude | Longitude | Altitude | Speed | Heading |
|---|---|---|---|---|---|
| 2026-05-07 06:41 | 51.15446 | -0.16419 | 204 ft | 0 kts | 78° |
| 2026-05-07 07:14 | 51.15443 | -0.16438 | 212 ft | 4 kts | 78° |
| 2026-05-07 07:14 | 51.15439 | -0.16473 | 207 ft | 3 kts | 76° |
| 2026-05-07 07:15 | 51.15428 | -0.16502 | 211 ft | 4 kts | 11° |
| 2026-05-07 07:15 | 51.15404 | -0.16500 | 206 ft | 4 kts | 347° |
| 2026-05-07 07:15 | 51.15391 | -0.16495 | 209 ft | 0 kts | 347° |
| 2026-05-07 07:18 | 51.15402 | -0.16502 | 205 ft | 4 kts | 337° |
| 2026-05-07 07:18 | 51.15411 | -0.16559 | 212 ft | 8 kts | 264° |
| 2026-05-07 07:19 | 51.15396 | -0.16673 | 208 ft | 12 kts | 257° |
| 2026-05-07 07:19 | 51.15375 | -0.16815 | 209 ft | 14 kts | 258° |
| 2026-05-07 07:19 | 51.15352 | -0.16984 | 204 ft | 17 kts | 257° |
| 2026-05-07 07:19 | 51.15325 | -0.17180 | 208 ft | 19 kts | 258° |
| 2026-05-07 07:20 | 51.15301 | -0.17404 | 213 ft | 21 kts | 263° |
| 2026-05-07 07:20 | 51.15277 | -0.17643 | 204 ft | 23 kts | 256° |
| 2026-05-07 07:20 | 51.15243 | -0.17869 | 211 ft | 21 kts | 258° |
| 2026-05-07 07:20 | 51.15210 | -0.18109 | 206 ft | 23 kts | 257° |
| 2026-05-07 07:21 | 51.15181 | -0.18350 | 208 ft | 22 kts | 261° |
| 2026-05-07 07:21 | 51.15150 | -0.18585 | 203 ft | 19 kts | 258° |
| 2026-05-07 07:21 | 51.15119 | -0.18810 | 207 ft | 22 kts | 258° |
| 2026-05-07 07:21 | 51.15085 | -0.19058 | 212 ft | 24 kts | 257° |
| 2026-05-07 07:22 | 51.15059 | -0.19230 | 204 ft | 11 kts | 249° |
| 2026-05-07 07:22 | 51.14994 | -0.19270 | 209 ft | 10 kts | 180° |
| 2026-05-07 07:22 | 51.14948 | -0.19350 | 208 ft | 12 kts | 259° |
| 2026-05-07 07:22 | 51.14930 | -0.19520 | 206 ft | 18 kts | 257° |
| 2026-05-07 07:23 | 51.14900 | -0.19728 | 210 ft | 20 kts | 257° |
| 2026-05-07 07:23 | 51.14868 | -0.19967 | 206 ft | 24 kts | 258° |
| 2026-05-07 07:23 | 51.14830 | -0.20239 | 203 ft | 25 kts | 256° |
| 2026-05-07 07:23 | 51.14795 | -0.20495 | 213 ft | 25 kts | 258° |
| 2026-05-07 07:24 | 51.14757 | -0.20777 | 207 ft | 27 kts | 258° |
| 2026-05-07 07:24 | 51.14717 | -0.21069 | 204 ft | 28 kts | 257° |
| 2026-05-07 07:24 | 51.14688 | -0.21274 | 206 ft | 12 kts | 255° |
| 2026-05-07 07:24 | 51.14623 | -0.21328 | 204 ft | 13 kts | 171° |
| 2026-05-07 07:25 | 51.14521 | -0.21158 | 209 ft | 4 kts | 78° |
| 2026-05-07 07:25 | 51.14522 | -0.21155 | 202 ft | 1 kts | 78° |
| 2026-05-07 07:25 | 51.14572 | -0.20787 | 210 ft | 69 kts | 77° |
| 2026-05-07 07:26 | 51.14719 | -0.19725 | 208 ft | 124 kts | 77° |
| 2026-05-07 07:26 | 51.14939 | -0.18149 | 241 ft | 163 kts | 78° |
| 2026-05-07 07:26 | 51.15155 | -0.16433 | 955 ft | 155 kts | 78° |
| 2026-05-07 07:26 | 51.15383 | -0.14745 | 1575 ft | 159 kts | 78° |
| 2026-05-07 07:27 | 51.15640 | -0.12915 | 1874 ft | 180 kts | 78° |
| 2026-05-07 07:27 | 51.15930 | -0.10849 | 2139 ft | 202 kts | 78° |
| 2026-05-07 07:27 | 51.16249 | -0.08555 | 2452 ft | 223 kts | 78° |
| 2026-05-07 07:27 | 51.16603 | -0.06008 | 2841 ft | 248 kts | 78° |
| 2026-05-07 07:28 | 51.16892 | -0.03220 | 3505 ft | 260 kts | 89° |
| 2026-05-07 07:28 | 51.16855 | -0.00310 | 4393 ft | 265 kts | 92° |
| 2026-05-07 07:28 | 51.16802 | 0.02641 | 5257 ft | 268 kts | 92° |
| 2026-05-07 07:28 | 51.16744 | 0.05625 | 6157 ft | 271 kts | 92° |
| 2026-05-07 07:29 | 51.16684 | 0.08652 | 7000 ft | 275 kts | 93° |
| 2026-05-07 07:29 | 51.16623 | 0.11721 | 7815 ft | 279 kts | 92° |
| 2026-05-07 07:29 | 51.16564 | 0.14834 | 8622 ft | 283 kts | 92° |
| 2026-05-07 07:29 | 51.16528 | 0.17992 | 9431 ft | 287 kts | 90° |
| 2026-05-07 07:30 | 51.16530 | 0.21194 | 10190 ft | 291 kts | 89° |
| 2026-05-07 07:30 | 51.16543 | 0.24440 | 10907 ft | 295 kts | 89° |
| 2026-05-07 07:30 | 51.16561 | 0.27724 | 11633 ft | 298 kts | 89° |
| 2026-05-07 07:30 | 51.16574 | 0.31047 | 12355 ft | 302 kts | 89° |
| 2026-05-07 07:31 | 51.16584 | 0.34419 | 13075 ft | 306 kts | 90° |
| 2026-05-07 07:31 | 51.16588 | 0.37824 | 13792 ft | 309 kts | 90° |
| 2026-05-07 07:31 | 51.16591 | 0.41224 | 14424 ft | 312 kts | 90° |
| 2026-05-07 07:31 | 51.16595 | 0.44751 | 15073 ft | 316 kts | 90° |
| 2026-05-07 07:32 | 51.16726 | 0.48207 | 15690 ft | 319 kts | 78° |
| 2026-05-07 07:32 | 51.17510 | 0.51511 | 16306 ft | 322 kts | 58° |
| 2026-05-07 07:32 | 51.18942 | 0.54249 | 16914 ft | 324 kts | 39° |
| 2026-05-07 07:32 | 51.20872 | 0.56079 | 17525 ft | 325 kts | 19° |
| 2026-05-07 07:33 | 51.23067 | 0.57001 | 18150 ft | 328 kts | 12° |
| 2026-05-07 07:33 | 51.25299 | 0.57821 | 18711 ft | 331 kts | 12° |
| 2026-05-07 07:33 | 51.27549 | 0.58652 | 19284 ft | 333 kts | 12° |
| 2026-05-07 07:33 | 51.29816 | 0.59495 | 19843 ft | 336 kts | 12° |
| 2026-05-07 07:34 | 51.32098 | 0.60350 | 20400 ft | 338 kts | 12° |
| 2026-05-07 07:34 | 51.34402 | 0.61215 | 21043 ft | 341 kts | 12° |
| 2026-05-07 07:34 | 51.36719 | 0.62083 | 21562 ft | 343 kts | 12° |
| 2026-05-07 07:34 | 51.39052 | 0.62957 | 22056 ft | 347 kts | 12° |
| 2026-05-07 07:35 | 51.41448 | 0.63856 | 22209 ft | 360 kts | 12° |
| 2026-05-07 07:35 | 51.43931 | 0.64795 | 22346 ft | 373 kts | 12° |
| 2026-05-07 07:35 | 51.46502 | 0.65774 | 22488 ft | 386 kts | 12° |
| 2026-05-07 07:35 | 51.49145 | 0.66782 | 22748 ft | 394 kts | 12° |
| 2026-05-07 07:36 | 51.51826 | 0.67806 | 23180 ft | 398 kts | 12° |
| 2026-05-07 07:36 | 51.54530 | 0.68843 | 23639 ft | 401 kts | 12° |
| 2026-05-07 07:36 | 51.57252 | 0.69884 | 24039 ft | 404 kts | 12° |
| 2026-05-07 07:36 | 51.59992 | 0.70927 | 24444 ft | 406 kts | 12° |
| 2026-05-07 07:37 | 51.62744 | 0.71973 | 24848 ft | 408 kts | 12° |
| 2026-05-07 07:37 | 51.65514 | 0.73023 | 25244 ft | 410 kts | 12° |
| 2026-05-07 07:37 | 51.68295 | 0.74078 | 25636 ft | 412 kts | 12° |
| 2026-05-07 07:37 | 51.71087 | 0.75139 | 26043 ft | 414 kts | 13° |
| 2026-05-07 07:38 | 51.73896 | 0.76207 | 26436 ft | 416 kts | 13° |
| 2026-05-07 07:38 | 51.76720 | 0.77286 | 26824 ft | 418 kts | 13° |
| 2026-05-07 07:38 | 51.79489 | 0.78515 | 27183 ft | 420 kts | 19° |
| 2026-05-07 07:38 | 51.81313 | 0.79739 | 27435 ft | 421 kts | 26° |
| 2026-05-07 07:39 | 51.83843 | 0.82123 | 27888 ft | 421 kts | 35° |
| 2026-05-07 07:39 | 51.86127 | 0.85093 | 28307 ft | 422 kts | 42° |
| 2026-05-07 07:39 | 51.88312 | 0.88282 | 28696 ft | 424 kts | 42° |
| 2026-05-07 07:39 | 51.90512 | 0.91478 | 29077 ft | 426 kts | 42° |
| 2026-05-07 07:40 | 51.92724 | 0.94686 | 29446 ft | 428 kts | 42° |
| 2026-05-07 07:40 | 51.94949 | 0.97911 | 29821 ft | 430 kts | 42° |
| 2026-05-07 07:40 | 51.97182 | 1.01154 | 30172 ft | 432 kts | 41° |
| 2026-05-07 07:40 | 51.99426 | 1.04419 | 30484 ft | 434 kts | 42° |
| 2026-05-07 07:41 | 52.01675 | 1.07709 | 30802 ft | 436 kts | 42° |
| 2026-05-07 07:41 | 52.03918 | 1.11005 | 31229 ft | 434 kts | 42° |
| 2026-05-07 07:41 | 52.06236 | 1.14138 | 31688 ft | 433 kts | 37° |
| 2026-05-07 07:41 | 52.08639 | 1.17066 | 32149 ft | 431 kts | 37° |
| 2026-05-07 07:42 | 52.11035 | 1.19988 | 32588 ft | 430 kts | 37° |
| 2026-05-07 07:42 | 52.13413 | 1.22948 | 33005 ft | 430 kts | 38° |
| 2026-05-07 07:42 | 52.15704 | 1.25960 | 33428 ft | 429 kts | 40° |
| 2026-05-07 07:42 | 52.17990 | 1.29085 | 33856 ft | 428 kts | 40° |
| 2026-05-07 07:43 | 52.20252 | 1.32233 | 34257 ft | 428 kts | 41° |
| 2026-05-07 07:43 | 52.22517 | 1.35391 | 34572 ft | 428 kts | 40° |
| 2026-05-07 07:43 | 52.24790 | 1.38539 | 34867 ft | 429 kts | 40° |
| 2026-05-07 07:43 | 52.27073 | 1.41679 | 35168 ft | 429 kts | 40° |
| 2026-05-07 07:44 | 52.29361 | 1.44809 | 35486 ft | 429 kts | 40° |
| 2026-05-07 07:44 | 52.31652 | 1.47932 | 35802 ft | 429 kts | 40° |
| 2026-05-07 07:44 | 52.33912 | 1.51122 | 36054 ft | 430 kts | 44° |
| 2026-05-07 07:44 | 52.36013 | 1.54614 | 36302 ft | 431 kts | 45° |
| 2026-05-07 07:45 | 52.38109 | 1.58132 | 36528 ft | 432 kts | 45° |
| 2026-05-07 07:45 | 52.40208 | 1.61666 | 36759 ft | 433 kts | 45° |
| 2026-05-07 07:45 | 52.42310 | 1.65206 | 36979 ft | 435 kts | 45° |
| 2026-05-07 07:45 | 52.44427 | 1.68771 | 37085 ft | 438 kts | 45° |
| 2026-05-07 07:46 | 52.46562 | 1.72369 | 37097 ft | 441 kts | 45° |
| 2026-05-07 07:46 | 52.50847 | 1.79611 | 37087 ft | 443 kts | 45° |
| 2026-05-07 07:47 | 52.55120 | 1.86872 | 37090 ft | 441 kts | 46° |
| 2026-05-07 07:47 | 52.59381 | 1.94124 | 37090 ft | 441 kts | 45° |
| 2026-05-07 07:48 | 52.63637 | 2.01387 | 37088 ft | 441 kts | 45° |
| 2026-05-07 07:48 | 52.67894 | 2.08674 | 37092 ft | 442 kts | 45° |
| 2026-05-07 07:49 | 52.72159 | 2.15979 | 37096 ft | 442 kts | 45° |
| 2026-05-07 07:49 | 52.76414 | 2.23306 | 37105 ft | 442 kts | 46° |
| 2026-05-07 07:50 | 52.80661 | 2.30659 | 37109 ft | 442 kts | 46° |
| 2026-05-07 07:50 | 52.84902 | 2.38014 | 37111 ft | 442 kts | 46° |
| 2026-05-07 07:51 | 52.89149 | 2.45374 | 37111 ft | 442 kts | 46° |
| 2026-05-07 07:51 | 52.93378 | 2.52751 | 37114 ft | 442 kts | 46° |
| 2026-05-07 07:52 | 52.97665 | 2.60046 | 37114 ft | 441 kts | 39° |
| 2026-05-07 07:52 | 53.02793 | 2.65428 | 37110 ft | 440 kts | 25° |
| 2026-05-07 07:53 | 53.08276 | 2.69929 | 37113 ft | 440 kts | 26° |
| 2026-05-07 07:53 | 53.13755 | 2.74483 | 37111 ft | 440 kts | 26° |
| 2026-05-07 07:54 | 53.19227 | 2.79059 | 37111 ft | 440 kts | 26° |
| 2026-05-07 07:54 | 53.24701 | 2.83643 | 37117 ft | 440 kts | 26° |
| 2026-05-07 07:55 | 53.30173 | 2.88235 | 37110 ft | 440 kts | 26° |
| 2026-05-07 07:55 | 53.35648 | 2.92831 | 37112 ft | 440 kts | 26° |
| 2026-05-07 07:56 | 53.41123 | 2.97444 | 37112 ft | 440 kts | 26° |
| 2026-05-07 07:56 | 53.46593 | 3.02064 | 37113 ft | 440 kts | 26° |
| 2026-05-07 07:57 | 53.52062 | 3.06703 | 37115 ft | 440 kts | 26° |
| 2026-05-07 07:57 | 53.57527 | 3.11356 | 37120 ft | 440 kts | 26° |
| 2026-05-07 07:58 | 53.62990 | 3.16035 | 37119 ft | 440 kts | 26° |
| 2026-05-07 07:58 | 53.67954 | 3.22038 | 37117 ft | 442 kts | 45° |
| 2026-05-07 07:59 | 53.72073 | 3.29750 | 37122 ft | 442 kts | 47° |
| 2026-05-07 07:59 | 53.76182 | 3.37501 | 37118 ft | 443 kts | 47° |
| 2026-05-07 08:00 | 53.80283 | 3.45274 | 37117 ft | 443 kts | 47° |
| 2026-05-07 08:00 | 53.84372 | 3.53074 | 37120 ft | 443 kts | 47° |
| 2026-05-07 08:01 | 53.88435 | 3.60845 | 37117 ft | 443 kts | 47° |
| 2026-05-07 08:01 | 53.92516 | 3.68678 | 37115 ft | 443 kts | 47° |
| 2026-05-07 08:02 | 53.96595 | 3.76534 | 37120 ft | 444 kts | 47° |
| 2026-05-07 08:02 | 54.00677 | 3.84416 | 37115 ft | 444 kts | 47° |
| 2026-05-07 08:03 | 54.04757 | 3.92306 | 37112 ft | 444 kts | 47° |
| 2026-05-07 08:03 | 54.08833 | 4.00230 | 37115 ft | 445 kts | 47° |
| 2026-05-07 08:04 | 54.12906 | 4.08155 | 37110 ft | 445 kts | 47° |
| 2026-05-07 08:04 | 54.16975 | 4.16106 | 37110 ft | 445 kts | 48° |
| 2026-05-07 08:05 | 54.21030 | 4.24083 | 37112 ft | 445 kts | 48° |
| 2026-05-07 08:05 | 54.24851 | 4.32390 | 37104 ft | 446 kts | 58° |
| 2026-05-07 08:06 | 54.27989 | 4.41568 | 37099 ft | 447 kts | 58° |
| 2026-05-07 08:06 | 54.31134 | 4.50752 | 37100 ft | 447 kts | 58° |
| 2026-05-07 08:07 | 54.34272 | 4.59958 | 37098 ft | 447 kts | 59° |
| 2026-05-07 08:07 | 54.37400 | 4.69182 | 37100 ft | 448 kts | 59° |
| 2026-05-07 08:08 | 54.40521 | 4.78425 | 37115 ft | 448 kts | 59° |
| 2026-05-07 08:08 | 54.43641 | 4.87676 | 37111 ft | 448 kts | 59° |
| 2026-05-07 08:09 | 54.46757 | 4.96942 | 37109 ft | 448 kts | 59° |
| 2026-05-07 08:09 | 54.49856 | 5.06233 | 37108 ft | 448 kts | 59° |
| 2026-05-07 08:10 | 54.52946 | 5.15539 | 37108 ft | 448 kts | 59° |
| 2026-05-07 08:10 | 54.56038 | 5.24858 | 37110 ft | 448 kts | 59° |
| 2026-05-07 08:11 | 54.59123 | 5.34182 | 37109 ft | 448 kts | 59° |
| 2026-05-07 08:11 | 54.62196 | 5.43527 | 37102 ft | 448 kts | 59° |
| 2026-05-07 08:12 | 54.65267 | 5.52890 | 37107 ft | 448 kts | 59° |
| 2026-05-07 08:12 | 54.68338 | 5.62274 | 37101 ft | 449 kts | 59° |
| 2026-05-07 08:13 | 54.71395 | 5.71686 | 37104 ft | 449 kts | 59° |
| 2026-05-07 08:13 | 54.74445 | 5.81116 | 37107 ft | 449 kts | 59° |
| 2026-05-07 08:14 | 54.77496 | 5.90553 | 37105 ft | 449 kts | 59° |
| 2026-05-07 08:14 | 54.80538 | 6.00012 | 37105 ft | 449 kts | 60° |
| 2026-05-07 08:15 | 54.83574 | 6.09480 | 37099 ft | 450 kts | 60° |
| 2026-05-07 08:15 | 54.86604 | 6.18985 | 37107 ft | 450 kts | 60° |
| 2026-05-07 08:16 | 54.89624 | 6.28510 | 37108 ft | 450 kts | 60° |
| 2026-05-07 08:16 | 54.92639 | 6.38044 | 37108 ft | 450 kts | 60° |
| 2026-05-07 08:17 | 54.95642 | 6.47588 | 37112 ft | 450 kts | 60° |
| 2026-05-07 08:17 | 54.98611 | 6.57070 | 37112 ft | 449 kts | 60° |
| 2026-05-07 08:18 | 55.01318 | 6.66930 | 37106 ft | 449 kts | 66° |
| 2026-05-07 08:18 | 55.03726 | 6.76968 | 37104 ft | 449 kts | 66° |
| 2026-05-07 08:19 | 55.06116 | 6.87028 | 37103 ft | 449 kts | 66° |
| 2026-05-07 08:19 | 55.08488 | 6.97029 | 37111 ft | 449 kts | 66° |
| 2026-05-07 08:20 | 55.10868 | 7.07124 | 37103 ft | 450 kts | 66° |
| 2026-05-07 08:20 | 55.13243 | 7.17232 | 36555 ft | 450 kts | 66° |
| 2026-05-07 08:20 | 55.14430 | 7.22296 | 35962 ft | 450 kts | 66° |
| 2026-05-07 08:21 | 55.15615 | 7.27350 | 35450 ft | 448 kts | 66° |
| 2026-05-07 08:21 | 55.16794 | 7.32390 | 34853 ft | 448 kts | 66° |
| 2026-05-07 08:21 | 55.17968 | 7.37445 | 34260 ft | 448 kts | 66° |
| 2026-05-07 08:21 | 55.19135 | 7.42495 | 33595 ft | 447 kts | 65° |
| 2026-05-07 08:22 | 55.20303 | 7.47540 | 32906 ft | 446 kts | 65° |
| 2026-05-07 08:22 | 55.21467 | 7.52574 | 32236 ft | 445 kts | 66° |
| 2026-05-07 08:22 | 55.22623 | 7.57599 | 31583 ft | 444 kts | 66° |
| 2026-05-07 08:22 | 55.23775 | 7.62617 | 30948 ft | 443 kts | 66° |
| 2026-05-07 08:23 | 55.24919 | 7.67608 | 30323 ft | 441 kts | 66° |
| 2026-05-07 08:23 | 55.26058 | 7.72589 | 29629 ft | 439 kts | 66° |
| 2026-05-07 08:23 | 55.27191 | 7.77545 | 28925 ft | 437 kts | 66° |
| 2026-05-07 08:23 | 55.28318 | 7.82483 | 28235 ft | 435 kts | 66° |
| 2026-05-07 08:24 | 55.29441 | 7.87414 | 27562 ft | 433 kts | 66° |
| 2026-05-07 08:24 | 55.30551 | 7.92319 | 26900 ft | 431 kts | 67° |
| 2026-05-07 08:24 | 55.31281 | 7.95553 | 26436 ft | 431 kts | 67° |
| 2026-05-07 08:24 | 55.32384 | 8.00448 | 25678 ft | 431 kts | 67° |
| 2026-05-07 08:25 | 55.33489 | 8.05357 | 24936 ft | 432 kts | 67° |
| 2026-05-07 08:25 | 55.34593 | 8.10274 | 24221 ft | 432 kts | 68° |
| 2026-05-07 08:25 | 55.35694 | 8.15192 | 23477 ft | 432 kts | 68° |
| 2026-05-07 08:25 | 55.37148 | 8.21689 | 22375 ft | 431 kts | 68° |
| 2026-05-07 08:26 | 55.38981 | 8.29896 | 21033 ft | 429 kts | 68° |
| 2026-05-07 08:26 | 55.40068 | 8.34769 | 20264 ft | 427 kts | 68° |
| 2026-05-07 08:26 | 55.41145 | 8.39630 | 19516 ft | 426 kts | 68° |
| 2026-05-07 08:27 | 55.42199 | 8.44418 | 18822 ft | 424 kts | 68° |
| 2026-05-07 08:27 | 55.43260 | 8.49240 | 18202 ft | 419 kts | 68° |
| 2026-05-07 08:27 | 55.44304 | 8.54004 | 17503 ft | 415 kts | 68° |
| 2026-05-07 08:27 | 55.45338 | 8.58734 | 16851 ft | 412 kts | 68° |
| 2026-05-07 08:28 | 55.46363 | 8.63418 | 16197 ft | 409 kts | 68° |
| 2026-05-07 08:28 | 55.47382 | 8.68078 | 15556 ft | 405 kts | 68° |
| 2026-05-07 08:28 | 55.48389 | 8.72686 | 14935 ft | 401 kts | 68° |
| 2026-05-07 08:28 | 55.49386 | 8.77258 | 14319 ft | 397 kts | 68° |
| 2026-05-07 08:29 | 55.50368 | 8.81789 | 13702 ft | 394 kts | 68° |
| 2026-05-07 08:29 | 55.51337 | 8.86278 | 13015 ft | 389 kts | 69° |
| 2026-05-07 08:29 | 55.52288 | 8.90715 | 12426 ft | 383 kts | 69° |
| 2026-05-07 08:29 | 55.53221 | 8.95073 | 11906 ft | 375 kts | 68° |
| 2026-05-07 08:30 | 55.54135 | 8.99324 | 11394 ft | 367 kts | 68° |
| 2026-05-07 08:30 | 55.55035 | 9.03498 | 10891 ft | 361 kts | 68° |
| 2026-05-07 08:30 | 55.55916 | 9.07603 | 10393 ft | 354 kts | 68° |
| 2026-05-07 08:30 | 55.56783 | 9.11644 | 9890 ft | 349 kts | 68° |
| 2026-05-07 08:31 | 55.57636 | 9.15616 | 9357 ft | 344 kts | 68° |
| 2026-05-07 08:31 | 55.58475 | 9.19548 | 8816 ft | 340 kts | 69° |
| 2026-05-07 08:31 | 55.59301 | 9.23427 | 8368 ft | 334 kts | 68° |
| 2026-05-07 08:31 | 55.60110 | 9.27231 | 7978 ft | 328 kts | 69° |
| 2026-05-07 08:32 | 55.60904 | 9.30980 | 7593 ft | 323 kts | 69° |
| 2026-05-07 08:32 | 55.61684 | 9.34675 | 7211 ft | 319 kts | 69° |
| 2026-05-07 08:32 | 55.62455 | 9.38333 | 6825 ft | 315 kts | 69° |
| 2026-05-07 08:32 | 55.63214 | 9.41949 | 6447 ft | 312 kts | 69° |
| 2026-05-07 08:33 | 55.63966 | 9.45534 | 6044 ft | 309 kts | 69° |
| 2026-05-07 08:33 | 55.64712 | 9.49084 | 5651 ft | 307 kts | 69° |
| 2026-05-07 08:33 | 55.65517 | 9.52567 | 5260 ft | 304 kts | 59° |
| 2026-05-07 08:33 | 55.66978 | 9.55166 | 4877 ft | 299 kts | 28° |
| 2026-05-07 08:34 | 55.68960 | 9.56016 | 4483 ft | 295 kts | 356° |
| 2026-05-07 08:34 | 55.70929 | 9.55194 | 4228 ft | 287 kts | 339° |
| 2026-05-07 08:34 | 55.72738 | 9.53844 | 4040 ft | 277 kts | 334° |
| 2026-05-07 08:34 | 55.74247 | 9.52027 | 3939 ft | 251 kts | 308° |
| 2026-05-07 08:35 | 55.74960 | 9.49373 | 3742 ft | 232 kts | 276° |
| 2026-05-07 08:35 | 55.74964 | 9.46637 | 3477 ft | 219 kts | 265° |
| 2026-05-07 08:35 | 55.74881 | 9.43956 | 3189 ft | 211 kts | 265° |
| 2026-05-07 08:35 | 55.74806 | 9.41407 | 2906 ft | 203 kts | 265° |
| 2026-05-07 08:36 | 55.74737 | 9.38998 | 2659 ft | 192 kts | 265° |
| 2026-05-07 08:36 | 55.74671 | 9.36683 | 2402 ft | 184 kts | 265° |
| 2026-05-07 08:36 | 55.74606 | 9.34443 | 2141 ft | 178 kts | 265° |
| 2026-05-07 08:36 | 55.74545 | 9.32333 | 1920 ft | 163 kts | 265° |
| 2026-05-07 08:37 | 55.74489 | 9.30420 | 1707 ft | 149 kts | 266° |
| 2026-05-07 08:37 | 55.74436 | 9.28642 | 1497 ft | 142 kts | 266° |
| 2026-05-07 08:37 | 55.74385 | 9.26912 | 1302 ft | 139 kts | 266° |
| 2026-05-07 08:37 | 55.74334 | 9.25202 | 1105 ft | 139 kts | 266° |
| 2026-05-07 08:38 | 55.74283 | 9.23490 | 911 ft | 139 kts | 266° |
| 2026-05-07 08:38 | 55.74232 | 9.21776 | 708 ft | 139 kts | 265° |
| 2026-05-07 08:38 | 55.74183 | 9.20058 | 510 ft | 139 kts | 265° |
| 2026-05-07 08:38 | 55.74131 | 9.18346 | 314 ft | 139 kts | 265° |
| 2026-05-07 08:39 | 55.74080 | 9.16688 | 216 ft | 120 kts | 267° |
| 2026-05-07 08:39 | 55.74044 | 9.15522 | 216 ft | 70 kts | 266° |
| 2026-05-07 08:39 | 55.74027 | 9.14948 | 220 ft | 32 kts | 266° |
| 2026-05-07 08:39 | 55.74016 | 9.14623 | 216 ft | 16 kts | 266° |
| 2026-05-07 08:40 | 55.74041 | 9.14500 | 216 ft | 10 kts | 342° |
| 2026-05-07 08:40 | 55.74119 | 9.14490 | 216 ft | 12 kts | 358° |
| 2026-05-07 08:40 | 55.74214 | 9.14484 | 219 ft | 11 kts | 357° |
| 2026-05-07 08:40 | 55.74288 | 9.14476 | 216 ft | 8 kts | 356° |
| 2026-05-07 08:41 | 55.74342 | 9.14470 | 219 ft | 9 kts | 356° |
| 2026-05-07 08:41 | 55.74408 | 9.14465 | 216 ft | 10 kts | 8° |
| 2026-05-07 08:41 | 55.74442 | 9.14552 | 222 ft | 8 kts | 86° |
| 2026-05-07 08:41 | 55.74473 | 9.14624 | 216 ft | 8 kts | 5° |
| 2026-05-07 08:42 | 55.74515 | 9.14619 | 220 ft | 4 kts | 357° |
| 2026-05-07 08:42 | 55.74527 | 9.14618 | 219 ft | 0 kts | 357° |